createdAt,value
2023-04-03T00:01:42.621Z,5.20
2023-04-03T00:04:29.604Z,5.30
2023-04-03T00:07:16.718Z,5.30
2023-04-03T00:10:03.803Z,5.30
2023-04-03T00:12:51.877Z,5.30
2023-04-03T00:15:38.903Z,5.40
2023-04-03T00:18:25.516Z,5.40
2023-04-03T00:21:14.130Z,5.40
2023-04-03T00:24:00.947Z,5.40
2023-04-03T00:26:47.931Z,5.50
2023-04-03T00:29:35.936Z,5.40
2023-04-03T00:32:23.286Z,5.40
2023-04-03T00:35:10.669Z,5.40
2023-04-03T00:37:58.057Z,5.40
2023-04-03T00:40:47.437Z,5.40
2023-04-03T00:43:34.280Z,5.40
2023-04-03T00:46:22.099Z,5.40
2023-04-03T00:49:09.250Z,5.40
2023-04-03T00:51:56.902Z,5.30
2023-04-03T00:54:45.762Z,5.30
2023-04-03T00:57:33.751Z,5.40
2023-04-03T01:00:23.398Z,5.50
2023-04-03T01:03:11.680Z,5.50
2023-04-03T01:06:00.587Z,5.50
2023-04-03T01:08:49.760Z,5.50
2023-04-03T01:11:36.684Z,5.60
2023-04-03T01:14:23.225Z,5.60
2023-04-03T01:17:28.965Z,5.50
2023-04-03T01:20:43.965Z,5.40
2023-04-03T01:23:38.940Z,5.50
2023-04-03T01:26:26.686Z,5.50
2023-04-03T01:29:13.318Z,5.60
2023-04-03T01:32:02.313Z,5.60
2023-04-03T01:34:49.546Z,5.60
2023-04-03T01:37:36.067Z,5.50
2023-04-03T01:40:23.234Z,5.40
2023-04-03T01:43:09.847Z,5.30
2023-04-03T01:45:56.756Z,5.30
2023-04-03T01:48:46.089Z,5.20
2023-04-03T01:51:34.027Z,5.20
2023-04-03T01:54:20.886Z,5.10
2023-04-03T01:57:07.323Z,5.20
2023-04-03T01:59:54.876Z,5.10
2023-04-03T02:02:41.703Z,5.00
2023-04-03T02:05:29.950Z,5.10
2023-04-03T02:08:18.890Z,5.10
2023-04-03T02:11:05.911Z,5.10
2023-04-03T02:13:53.763Z,5.20
2023-04-03T02:16:40.893Z,5.30
2023-04-03T02:19:27.852Z,5.30
2023-04-03T02:22:16.424Z,5.10
2023-04-03T02:25:03.467Z,5.10
2023-04-03T02:27:49.912Z,4.90
2023-04-03T02:30:37.053Z,4.80
2023-04-03T02:33:25.387Z,4.80
2023-04-03T02:36:12.190Z,4.80
2023-04-03T02:39:04.133Z,4.80
2023-04-03T02:41:51.327Z,4.80
2023-04-03T02:44:43.493Z,4.70
2023-04-03T02:47:30.529Z,4.60
2023-04-03T02:50:17.625Z,4.60
2023-04-03T02:53:04.022Z,4.60
2023-04-03T02:55:52.331Z,4.60
2023-04-03T02:58:39.003Z,4.50
2023-04-03T03:01:29.528Z,4.50
2023-04-03T03:04:16.575Z,4.50
2023-04-03T03:07:03.234Z,4.50
2023-04-03T03:09:49.978Z,4.50
2023-04-03T03:12:37.913Z,4.60
2023-04-03T03:15:24.585Z,4.60
2023-04-03T03:18:10.871Z,4.60
2023-04-03T03:20:59.383Z,4.60
2023-04-03T03:23:46.308Z,4.50
2023-04-03T03:26:32.622Z,4.50
2023-04-03T03:29:21.029Z,4.60
2023-04-03T03:32:08.097Z,4.50
2023-04-03T03:34:55.044Z,4.60
2023-04-03T03:37:41.446Z,4.50
2023-04-03T03:40:28.457Z,4.50
2023-04-03T03:43:15.371Z,4.50
2023-04-03T03:46:03.723Z,4.50
2023-04-03T03:48:50.838Z,4.60
2023-04-03T03:51:37.930Z,4.50
2023-04-03T03:54:27.241Z,4.50
2023-04-03T03:57:14.266Z,4.50
2023-04-03T04:00:01.428Z,4.50
2023-04-03T04:02:50.254Z,4.50
2023-04-03T04:05:40.247Z,4.40
2023-04-03T04:08:27.117Z,4.30
2023-04-03T04:11:14.009Z,4.30
2023-04-03T04:14:01.985Z,4.20
2023-04-03T04:16:49.933Z,4.30
2023-04-03T04:19:43.165Z,4.30
2023-04-03T04:22:29.834Z,4.30
2023-04-03T04:25:16.410Z,4.30
2023-04-03T04:28:03.298Z,4.30
2023-04-03T04:30:50.313Z,4.40
2023-04-03T04:33:39.221Z,4.40
2023-04-03T04:36:29.477Z,4.40
2023-04-03T04:39:16.354Z,4.50
2023-04-03T04:42:03.356Z,4.50
2023-04-03T04:44:52.382Z,4.40
2023-04-03T04:47:39.467Z,4.40
2023-04-03T04:50:26.348Z,4.40
2023-04-03T04:53:15.594Z,4.30
2023-04-03T04:56:03.249Z,4.30
2023-04-03T04:58:51.700Z,4.40
2023-04-03T05:01:41.322Z,4.30
2023-04-03T05:04:32.655Z,4.20
2023-04-03T05:07:25.694Z,4.20
2023-04-03T05:10:13.835Z,4.20
2023-04-03T05:13:01.269Z,4.30
2023-04-03T05:15:49.006Z,4.30
2023-04-03T05:18:36.207Z,4.30
2023-04-03T05:21:30.191Z,4.00
2023-04-03T05:24:17.158Z,3.80
2023-04-03T05:27:05.961Z,3.80
2023-04-03T05:29:57.251Z,3.80
2023-04-03T05:32:44.426Z,3.80
2023-04-03T05:35:42.301Z,3.80
2023-04-03T05:38:32.417Z,3.70
2023-04-03T05:41:21.613Z,3.80
2023-04-03T05:44:09.982Z,3.80
2023-04-03T05:46:56.955Z,3.80
2023-04-03T05:49:43.693Z,3.80
2023-04-03T05:52:35.115Z,3.80
2023-04-03T05:55:22.359Z,3.80
2023-04-03T05:58:11.642Z,3.80
2023-04-03T06:01:00.321Z,3.90
2023-04-03T06:03:47.192Z,4.00
2023-04-03T06:06:47.129Z,4.10
2023-04-03T06:09:33.994Z,4.20
2023-04-03T06:12:21.813Z,4.10
2023-04-03T06:15:10.958Z,4.10
2023-04-03T06:17:58.864Z,4.00
2023-04-03T06:20:45.723Z,4.00
2023-04-03T06:23:33.749Z,4.00
2023-04-03T06:26:21.740Z,4.10
2023-04-03T06:29:08.669Z,4.20
2023-04-03T06:31:55.534Z,4.40
2023-04-03T06:34:43.916Z,4.50
2023-04-03T06:37:31.657Z,4.40
2023-04-03T06:40:22.819Z,4.50
2023-04-03T06:43:09.470Z,4.40
2023-04-03T06:45:56.484Z,4.40
2023-04-03T06:48:43.298Z,4.50
2023-04-03T06:51:32.231Z,4.50
2023-04-03T06:54:19.200Z,4.60
2023-04-03T06:57:05.762Z,4.60
2023-04-03T06:59:52.463Z,4.60
2023-04-03T07:02:39.084Z,4.70
2023-04-03T07:05:27.048Z,4.80
2023-04-03T07:08:15.706Z,5.20
2023-04-03T07:11:02.686Z,5.40
2023-04-03T07:13:49.366Z,5.90
2023-04-03T07:16:36.273Z,6.70
2023-04-03T07:19:25.362Z,7.40
2023-04-03T07:22:12.113Z,7.80
2023-04-03T07:25:00.972Z,7.40
2023-04-03T07:27:48.478Z,6.60
2023-04-03T07:30:35.240Z,6.30
2023-04-03T07:33:24.646Z,6.50
2023-04-03T07:36:12.185Z,6.90
2023-04-03T07:38:58.987Z,6.80
2023-04-03T07:41:47.223Z,6.60
2023-04-03T07:44:33.637Z,6.70
2023-04-03T07:47:21.264Z,7.30
2023-04-03T07:50:09.591Z,7.10
2023-04-03T07:52:58.614Z,6.90
2023-04-03T07:55:47.806Z,7.00
2023-04-03T07:58:35.770Z,7.30
2023-04-03T08:01:22.783Z,7.80
2023-04-03T08:04:09.525Z,8.30
2023-04-03T08:06:56.330Z,8.30
2023-04-03T08:09:42.930Z,8.10
2023-04-03T08:12:29.612Z,8.20
2023-04-03T08:15:18.180Z,8.00
2023-04-03T08:18:05.852Z,7.80
2023-04-03T08:20:53.455Z,7.70
2023-04-03T08:23:41.966Z,8.10
2023-04-03T08:26:29.004Z,8.50
2023-04-03T08:29:15.781Z,8.90
2023-04-03T08:32:03.616Z,10.10
2023-04-03T08:34:50.486Z,10.20
2023-04-03T08:37:38.284Z,9.80
2023-04-03T08:40:25.707Z,9.60
2023-04-03T08:43:28.999Z,9.20
2023-04-03T08:46:18.441Z,9.30
2023-04-03T08:49:14.053Z,9.50
2023-04-03T08:52:04.156Z,9.90
2023-04-03T08:54:53.810Z,9.90
2023-04-03T08:57:43.595Z,9.70
2023-04-03T09:00:36.583Z,9.10
2023-04-03T09:03:24.343Z,9.90
2023-04-03T09:06:17.004Z,10.20
2023-04-03T09:09:14.737Z,10.30
2023-04-03T09:12:12.196Z,10.60
2023-04-03T09:15:04.172Z,10.10
2023-04-03T09:18:01.329Z,9.40
2023-04-03T09:20:55.886Z,9.00
2023-04-03T09:23:47.709Z,8.40
2023-04-03T09:26:37.996Z,8.20
2023-04-03T09:29:26.298Z,8.20
2023-04-03T09:32:23.439Z,8.90
2023-04-03T09:35:27.177Z,8.90
2023-04-03T09:38:20.212Z,9.10
2023-04-03T09:41:15.852Z,9.50
2023-04-03T09:44:03.000Z,8.90
2023-04-03T09:46:49.773Z,8.50
2023-04-03T09:49:36.693Z,8.30
2023-04-03T09:52:27.181Z,9.10
2023-04-03T09:55:18.042Z,9.80
2023-04-03T09:58:24.328Z,9.70
2023-04-03T10:01:24.919Z,10.10
2023-04-03T10:04:15.141Z,9.80
2023-04-03T10:07:01.748Z,9.20
2023-04-03T10:09:57.354Z,9.50
2023-04-03T10:12:44.069Z,9.40
2023-04-03T10:15:37.697Z,9.60
2023-04-03T10:18:34.648Z,9.70
2023-04-03T10:21:29.408Z,9.20
2023-04-03T10:24:21.843Z,8.50
2023-04-03T10:27:12.712Z,8.50
2023-04-03T10:30:06.140Z,8.70
2023-04-03T10:33:04.826Z,9.00
2023-04-03T10:36:03.136Z,8.90
2023-04-03T10:38:59.605Z,8.80
2023-04-03T10:42:12.756Z,8.70
2023-04-03T10:45:25.823Z,8.40
2023-04-03T10:48:24.193Z,8.20
2023-04-03T10:51:21.839Z,8.30
2023-04-03T10:54:13.778Z,8.20
2023-04-03T10:57:12.480Z,8.20
2023-04-03T11:00:03.694Z,8.30
2023-04-03T11:02:57.436Z,8.20
2023-04-03T11:05:46.795Z,8.10
2023-04-03T11:08:40.477Z,8.10
2023-04-03T11:11:31.746Z,8.00
2023-04-03T11:14:26.602Z,7.90
2023-04-03T11:17:24.712Z,7.90
2023-04-03T11:20:19.790Z,7.80
2023-04-03T11:23:15.618Z,7.80
2023-04-03T11:26:11.646Z,7.80
2023-04-03T11:29:02.778Z,7.60
2023-04-03T11:32:10.069Z,7.60
2023-04-03T11:35:00.099Z,7.80
2023-04-03T11:37:49.244Z,7.70
2023-04-03T11:40:41.559Z,7.60
2023-04-03T11:43:30.798Z,7.80
2023-04-03T11:46:19.882Z,7.80
2023-04-03T11:49:06.832Z,8.00
2023-04-03T11:51:53.570Z,7.90
2023-04-03T11:54:49.709Z,7.70
2023-04-03T11:58:14.947Z,7.80
2023-04-03T12:01:04.879Z,7.60
2023-04-03T12:04:09.928Z,7.70
2023-04-03T12:07:16.924Z,7.80
2023-04-03T12:10:28.717Z,7.70
2023-04-03T12:13:20.733Z,7.70
2023-04-03T12:16:08.702Z,7.60
2023-04-03T12:19:04.557Z,7.60
2023-04-03T12:22:12.138Z,7.80
2023-04-03T12:24:58.819Z,7.90
2023-04-03T12:27:45.590Z,7.80
2023-04-03T12:30:33.979Z,7.80
2023-04-03T12:33:30.119Z,7.80
2023-04-03T12:36:26.159Z,7.70
2023-04-03T12:39:42.505Z,7.50
2023-04-03T12:43:07.142Z,7.40
2023-04-03T12:46:03.891Z,7.50
2023-04-03T12:48:52.928Z,7.80
2023-04-03T12:51:42.345Z,7.80
2023-04-03T12:54:33.815Z,7.60
2023-04-03T12:57:22.577Z,7.50
2023-04-03T13:00:33.589Z,7.50
2023-04-03T13:03:27.838Z,7.70
2023-04-03T13:06:20.982Z,7.80
2023-04-03T13:09:19.870Z,7.80
2023-04-03T13:12:14.964Z,7.70
2023-04-03T13:15:05.317Z,8.00
2023-04-03T13:17:53.691Z,7.90
2023-04-03T13:20:42.023Z,8.00
2023-04-03T13:23:29.530Z,8.10
2023-04-03T13:26:18.274Z,7.90
2023-04-03T13:29:12.737Z,7.90
2023-04-03T13:32:06.464Z,7.90
2023-04-03T13:34:53.469Z,7.90
2023-04-03T13:37:55.268Z,7.80
2023-04-03T13:40:51.324Z,8.00
2023-04-03T13:43:41.342Z,7.90
2023-04-03T13:46:30.079Z,8.00
2023-04-03T13:49:22.011Z,7.80
2023-04-03T13:52:25.887Z,7.80
2023-04-03T13:55:25.382Z,7.90
2023-04-03T13:58:25.210Z,7.90
2023-04-03T14:01:21.182Z,8.00
2023-04-03T14:04:15.736Z,7.90
2023-04-03T14:07:02.572Z,8.00
2023-04-03T14:09:49.296Z,8.10
2023-04-03T14:12:40.160Z,8.20
2023-04-03T14:15:30.774Z,8.30
2023-04-03T14:18:23.457Z,8.30
2023-04-03T14:21:11.309Z,8.20
2023-04-03T14:23:58.366Z,8.00
2023-04-03T14:26:46.120Z,7.90
2023-04-03T14:29:34.448Z,7.80
2023-04-03T14:32:22.827Z,7.90
2023-04-03T14:35:10.056Z,8.00
2023-04-03T14:37:57.491Z,8.00
2023-04-03T14:40:44.413Z,8.00
2023-04-03T14:43:31.175Z,7.90
2023-04-03T14:46:25.005Z,8.00
2023-04-03T14:49:17.247Z,8.00
2023-04-03T14:52:04.087Z,8.20
2023-04-03T14:54:51.274Z,8.30
2023-04-03T14:57:40.447Z,8.30
2023-04-03T15:00:27.574Z,8.10
2023-04-03T15:03:18.158Z,8.10
2023-04-03T15:06:05.889Z,7.90
2023-04-03T15:08:52.521Z,7.80
2023-04-03T15:11:39.117Z,7.80
2023-04-03T15:14:36.153Z,7.70
2023-04-03T15:17:25.450Z,7.60
2023-04-03T15:20:18.908Z,7.70
2023-04-03T15:23:07.015Z,7.80
2023-04-03T15:25:55.629Z,8.00
2023-04-03T15:28:44.778Z,8.20
2023-04-03T15:31:31.406Z,8.20
2023-04-03T15:34:18.471Z,8.10
2023-04-03T15:37:06.416Z,7.70
2023-04-03T15:39:53.115Z,7.70
2023-04-03T15:42:40.508Z,7.60
2023-04-03T15:45:30.364Z,7.70
2023-04-03T15:48:17.453Z,7.90
2023-04-03T15:51:04.088Z,8.00
2023-04-03T15:53:51.898Z,8.10
2023-04-03T15:56:38.390Z,8.30
2023-04-03T15:59:25.280Z,8.40
2023-04-03T16:02:14.692Z,8.20
2023-04-03T16:05:01.631Z,8.00
2023-04-03T16:07:48.688Z,7.90
2023-04-03T16:10:37.216Z,7.90
2023-04-03T16:13:24.173Z,7.80
2023-04-03T16:16:11.403Z,8.00
2023-04-03T16:18:58.306Z,8.00
2023-04-03T16:21:44.953Z,7.90
2023-04-03T16:24:33.077Z,7.70
2023-04-03T16:27:21.178Z,7.70
2023-04-03T16:30:09.221Z,7.60
2023-04-03T16:32:56.573Z,7.70
2023-04-03T16:35:44.670Z,7.70
2023-04-03T16:38:31.430Z,7.80
2023-04-03T16:41:17.810Z,7.80
2023-04-03T16:44:08.024Z,7.90
2023-04-03T16:46:54.847Z,7.80
2023-04-03T16:49:41.532Z,7.80
2023-04-03T16:52:28.273Z,7.70
2023-04-03T16:55:14.985Z,7.60
2023-04-03T16:58:01.454Z,7.50
2023-04-03T17:00:49.508Z,7.50
2023-04-03T17:03:35.914Z,7.50
2023-04-03T17:06:24.514Z,7.60
2023-04-03T17:09:11.784Z,7.80
2023-04-03T17:11:58.423Z,7.70
2023-04-03T17:14:44.880Z,7.60
2023-04-03T17:17:33.325Z,7.70
2023-04-03T17:20:20.429Z,7.60
2023-04-03T17:23:07.296Z,7.40
2023-04-03T17:25:55.076Z,7.40
2023-04-03T17:28:43.533Z,7.30
2023-04-03T17:31:31.109Z,7.30
2023-04-03T17:34:19.473Z,7.30
2023-04-03T17:37:06.384Z,7.30
2023-04-03T17:39:53.188Z,7.20
2023-04-03T17:42:39.898Z,7.20
2023-04-03T17:45:27.249Z,7.10
2023-04-03T17:48:14.034Z,7.10
2023-04-03T17:51:05.525Z,7.10
2023-04-03T17:53:52.435Z,7.10
2023-04-03T17:56:39.157Z,7.00
2023-04-03T17:59:26.741Z,7.00
2023-04-03T18:02:13.620Z,6.90
2023-04-03T18:05:00.425Z,6.80
2023-04-03T18:07:49.926Z,6.80
2023-04-03T18:10:37.825Z,6.60
2023-04-03T18:13:24.685Z,6.70
2023-04-03T18:16:12.935Z,6.70
2023-04-03T18:19:20.660Z,6.60
2023-04-03T18:22:09.921Z,6.60
2023-04-03T18:24:58.406Z,6.60
2023-04-03T18:27:47.473Z,6.50
2023-04-03T18:30:34.739Z,6.50
2023-04-03T18:33:21.685Z,6.50
2023-04-03T18:36:08.585Z,6.50
2023-04-03T18:38:55.696Z,6.40
2023-04-03T18:41:44.048Z,6.40
2023-04-03T18:44:34.118Z,6.40
2023-04-03T18:47:20.889Z,6.30
2023-04-03T18:50:09.210Z,6.30
2023-04-03T18:52:55.859Z,6.20
2023-04-03T18:55:42.605Z,6.20
2023-04-03T18:58:31.093Z,6.20
2023-04-03T19:01:18.245Z,6.10
2023-04-03T19:04:05.349Z,6.00
2023-04-03T19:06:51.818Z,5.90
2023-04-03T19:09:39.769Z,6.00
2023-04-03T19:12:26.703Z,6.00
2023-04-03T19:15:15.642Z,6.00
2023-04-03T19:18:02.629Z,5.90
2023-04-03T19:20:49.491Z,5.90
2023-04-03T19:23:36.559Z,5.80
2023-04-03T19:26:23.364Z,5.70
2023-04-03T19:29:10.323Z,5.70
2023-04-03T19:31:58.462Z,5.60
2023-04-03T19:34:45.016Z,5.60
2023-04-03T19:37:32.232Z,5.50
2023-04-03T19:40:19.050Z,5.50
2023-04-03T19:43:05.873Z,5.50
2023-04-03T19:45:53.320Z,5.50
2023-04-03T19:48:41.232Z,5.50
2023-04-03T19:51:27.821Z,5.50
2023-04-03T19:54:14.592Z,5.40
2023-04-03T19:57:02.113Z,5.40
2023-04-03T19:59:48.760Z,5.30
2023-04-03T20:02:35.045Z,5.30
2023-04-03T20:05:23.602Z,5.30
2023-04-03T20:08:10.777Z,5.20
2023-04-03T20:10:57.153Z,5.00
2023-04-03T20:13:43.551Z,4.90
2023-04-03T20:16:30.576Z,4.90
2023-04-03T20:19:17.604Z,4.90
2023-04-03T20:22:05.845Z,4.80
2023-04-03T20:24:52.260Z,4.80
2023-04-03T20:27:39.566Z,4.70
2023-04-03T20:30:26.044Z,4.70
2023-04-03T20:33:13.383Z,4.70
2023-04-03T20:36:01.582Z,4.60
2023-04-03T20:38:49.777Z,4.60
2023-04-03T20:41:38.548Z,4.50
2023-04-03T20:44:25.049Z,4.50
2023-04-03T20:47:11.530Z,4.50
2023-04-03T20:49:58.475Z,4.50
2023-04-03T20:52:44.882Z,4.40
2023-04-03T20:55:32.717Z,4.30
2023-04-03T20:58:19.820Z,4.40
2023-04-03T21:01:15.103Z,4.40
2023-04-03T21:04:06.196Z,4.40
2023-04-03T21:07:30.722Z,4.30
2023-04-03T21:10:54.771Z,4.30
2023-04-03T21:14:19.318Z,4.20
2023-04-03T21:17:05.497Z,4.20
2023-04-03T21:19:53.429Z,4.00
2023-04-03T21:22:43.632Z,4.10
2023-04-03T21:25:30.719Z,4.00
2023-04-03T21:28:17.269Z,4.10
2023-04-03T21:31:03.890Z,4.00
2023-04-03T21:33:50.854Z,4.10
2023-04-03T21:36:42.320Z,4.00
2023-04-03T21:39:28.982Z,4.00
2023-04-03T21:42:15.358Z,4.00
2023-04-03T21:45:02.074Z,4.00
2023-04-03T21:47:48.794Z,4.00
2023-04-03T21:50:36.965Z,4.00
2023-04-03T21:53:25.120Z,3.90
2023-04-03T21:56:12.238Z,3.80
2023-04-03T21:58:59.819Z,3.80
2023-04-03T22:01:46.765Z,3.80
2023-04-03T22:04:33.657Z,3.70
2023-04-03T22:07:19.860Z,3.70
2023-04-03T22:10:08.551Z,3.70
2023-04-03T22:12:55.370Z,3.60
2023-04-03T22:15:44.006Z,3.50
2023-04-03T22:18:31.847Z,3.50
2023-04-03T22:21:18.455Z,3.50
2023-04-03T22:24:05.435Z,3.50
2023-04-03T22:26:53.641Z,3.50
2023-04-03T22:29:40.422Z,3.50
2023-04-03T22:32:27.065Z,3.50
2023-04-03T22:35:14.076Z,3.60
2023-04-03T22:38:00.498Z,3.50
2023-04-03T22:40:47.119Z,3.50
2023-04-03T22:43:36.177Z,3.50
2023-04-03T22:46:22.851Z,3.40
2023-04-03T22:49:09.628Z,3.30
2023-04-03T22:51:56.272Z,3.30
2023-04-03T22:54:42.805Z,3.20
2023-04-03T22:57:29.589Z,3.20
2023-04-03T23:00:18.004Z,3.20
2023-04-03T23:03:04.519Z,3.20
2023-04-03T23:05:52.474Z,3.20
2023-04-03T23:08:40.589Z,3.10
2023-04-03T23:11:27.245Z,3.00
2023-04-03T23:14:14.060Z,2.90
2023-04-03T23:17:05.588Z,2.80
2023-04-03T23:19:52.488Z,2.80
2023-04-03T23:22:39.444Z,2.80
2023-04-03T23:25:26.534Z,2.80
2023-04-03T23:28:13.521Z,2.70
2023-04-03T23:31:02.297Z,2.60
2023-04-03T23:33:50.690Z,2.60
2023-04-03T23:36:37.256Z,2.60
2023-04-03T23:39:23.808Z,2.60
2023-04-03T23:42:11.986Z,2.60
2023-04-03T23:44:58.295Z,2.60
2023-04-03T23:47:44.730Z,2.60
2023-04-03T23:50:33.268Z,2.50
2023-04-03T23:53:19.729Z,2.50
2023-04-03T23:56:12.350Z,2.40
2023-04-03T23:58:58.864Z,2.50
